Termas de Chillan, Chile
Current Conditions -  °F | °C
As of 1:00 PM on Tuesday 27 Jan 2015 (Local Time) from SCIE Reporting Station
Clear Clear  
Wind Chill: 75°   Ceiling: Unl
Heat Index: 75°   Visibility: 6mi
Dew Point: 59°   Wind: 21mph
Humidity: 57%   Direction: 230°SW
Pressure: 29.97"   Gusts: NA
Location:  36.9°S, 71.52°W
Report Text: SCIE 271700Z 23018KT CAVOK 24/15 Q1015
Loading
Personal Weather Stations






























Interactive Weather Map New forecast layout! Learn more

10-Day Weather Forecast

Advertisements
Track Severe Weather on mobile